Time;durP1;ratioP1;P1;durP2;ratioP2;P2;SDS_P1;SDS_P2;PMS_P1;PMS_P2;Temp;Humidity;BMP_temperature;BMP_pressure;BME280_temperature;BME280_humidity;BME280_pressure;Samples;Min_cycle;Max_cycle;Signal;HPM_P1;HPM_P2
2022/08/15 00:00:26;;;;;;;14.03;12.77;;;23.70;96.70;;;;;;5032781;28;20429;-69
2022/08/15 00:02:52;;;;;;;12.90;11.90;;;23.60;96.40;;;;;;5032610;28;20495;-69
2022/08/15 00:05:22;;;;;;;12.77;11.77;;;23.60;96.40;;;;;;5031919;28;20456;-69
2022/08/15 00:07:48;;;;;;;13.00;12.00;;;23.50;96.60;;;;;;5032887;28;20917;-69
2022/08/15 00:10:16;;;;;;;12.23;11.17;;;23.50;96.90;;;;;;5033716;28;20487;-69
2022/08/15 00:12:42;;;;;;;12.80;11.80;;;23.50;97.10;;;;;;5032791;28;20802;-69
2022/08/15 00:15:12;;;;;;;12.67;11.50;;;23.60;97.20;;;;;;5032478;28;20443;-69
2022/08/15 00:17:40;;;;;;;12.80;11.87;;;23.60;97.40;;;;;;5030847;28;20647;-69
2022/08/15 00:20:08;;;;;;;12.30;11.37;;;23.60;97.30;;;;;;5031662;28;20964;-69
2022/08/15 00:22:34;;;;;;;12.60;11.60;;;23.60;97.10;;;;;;5031560;28;20417;-69
2022/08/15 00:25:00;;;;;;;12.43;11.53;;;23.60;97.00;;;;;;5031651;28;20488;-69
2022/08/15 00:27:26;;;;;;;12.60;11.50;;;23.60;97.00;;;;;;5030987;28;20757;-71
2022/08/15 00:29:53;;;;;;;13.37;12.30;;;23.60;97.40;;;;;;5033349;28;20261;-69
2022/08/15 00:32:23;;;;;;;12.60;11.60;;;23.60;97.50;;;;;;5032474;28;20269;-69
2022/08/15 00:34:50;;;;;;;13.90;12.83;;;23.60;97.40;;;;;;5031579;28;20437;-69
2022/08/15 00:37:17;;;;;;;12.73;11.80;;;23.60;97.40;;;;;;5033237;28;20401;-69
2022/08/15 00:39:44;;;;;;;12.93;11.80;;;23.60;97.20;;;;;;5032546;28;20413;-69
2022/08/15 00:42:11;;;;;;;12.70;11.70;;;23.60;97.20;;;;;;5033179;28;20401;-69
2022/08/15 00:44:44;;;;;;;12.47;11.37;;;23.60;97.20;;;;;;5032375;28;20453;-69
2022/08/15 00:47:15;;;;;;;12.50;11.50;;;23.60;97.40;;;;;;5033059;28;20401;-69
2022/08/15 00:49:43;;;;;;;12.30;11.23;;;23.60;97.50;;;;;;5029566;28;20523;-69
2022/08/15 00:52:24;;;;;;;13.60;12.50;;;23.60;98.00;;;;;;5032560;28;20468;-69
2022/08/15 00:55:04;;;;;;;14.17;12.90;;;23.60;97.80;;;;;;5031203;28;20451;-69
2022/08/15 00:57:35;;;;;;;13.47;12.10;;;23.60;97.90;;;;;;5030966;28;20458;-69
2022/08/15 01:00:11;;;;;;;13.70;12.50;;;23.60;97.70;;;;;;5033048;28;20877;-69
2022/08/15 01:02:38;;;;;;;13.13;12.13;;;23.50;97.50;;;;;;5032250;28;20427;-69
2022/08/15 01:05:09;;;;;;;14.03;12.87;;;23.50;97.50;;;;;;5032028;28;20447;-69
2022/08/15 01:07:35;;;;;;;13.20;12.10;;;23.50;97.50;;;;;;5032216;28;20417;-69
2022/08/15 01:10:02;;;;;;;13.60;12.50;;;23.50;97.50;;;;;;5032788;28;20416;-69
2022/08/15 01:12:28;;;;;;;13.33;12.23;;;23.50;97.60;;;;;;5031512;28;20411;-69
2022/08/15 01:14:58;;;;;;;13.40;12.20;;;23.50;97.80;;;;;;5031190;28;20535;-69
2022/08/15 01:17:27;;;;;;;13.43;12.37;;;23.50;97.70;;;;;;5030973;28;20953;-69
2022/08/15 01:19:59;;;;;;;12.30;11.40;;;23.50;97.90;;;;;;5029595;28;20436;-69
2022/08/15 01:22:55;;;;;;;12.50;11.50;;;23.60;98.60;;;;;;5031403;28;20500;-69
2022/08/15 01:25:33;;;;;;;11.57;10.67;;;23.60;98.20;;;;;;5032670;28;20778;-69
2022/08/15 01:28:11;;;;;;;11.53;10.63;;;23.60;98.00;;;;;;5031486;28;20845;-69
2022/08/15 01:30:44;;;;;;;12.13;11.17;;;23.60;98.20;;;;;;5031721;28;20924;-69
2022/08/15 01:33:11;;;;;;;12.53;11.53;;;23.50;98.30;;;;;;5030971;28;21005;-69
2022/08/15 01:35:38;;;;;;;13.57;12.37;;;23.50;98.70;;;;;;5031881;28;20421;-69
2022/08/15 01:38:05;;;;;;;12.07;11.10;;;23.40;98.80;;;;;;5032466;28;20427;-69
2022/08/15 01:40:40;;;;;;;13.40;12.33;;;23.30;99.00;;;;;;5031002;28;20429;-70
2022/08/15 01:43:09;;;;;;;12.23;11.03;;;23.30;99.10;;;;;;5032650;28;20441;-69
2022/08/15 01:45:37;;;;;;;12.93;11.83;;;23.40;99.20;;;;;;5029507;28;20440;-69
2022/08/15 01:48:17;;;;;;;13.10;12.00;;;23.40;99.70;;;;;;5029988;28;20794;-69
2022/08/15 01:50:49;;;;;;;12.20;11.20;;;23.50;99.50;;;;;;5030774;28;20464;-69
2022/08/15 01:53:25;;;;;;;11.93;10.93;;;23.50;99.50;;;;;;5031085;28;20984;-69
2022/08/15 01:55:51;;;;;;;13.83;12.47;;;23.50;99.50;;;;;;5031849;28;20409;-69
2022/08/15 01:58:17;;;;;;;13.37;12.27;;;23.60;99.00;;;;;;5032574;28;20417;-69
2022/08/15 02:01:13;;;;;;;11.93;11.03;;;23.60;98.90;;;;;;5031498;28;20843;-69
2022/08/15 02:03:41;;;;;;;11.60;10.77;;;23.60;99.00;;;;;;5034357;28;20799;-69
2022/08/15 02:06:17;;;;;;;11.97;11.07;;;23.60;99.10;;;;;;5035209;28;20523;-69
2022/08/15 02:08:44;;;;;;;12.17;11.30;;;23.70;99.70;;;;;;5034488;28;20490;-69
2022/08/15 02:11:17;;;;;;;12.23;11.20;;;23.70;99.30;;;;;;5033223;28;20943;-69
2022/08/15 02:13:46;;;;;;;12.03;11.03;;;23.70;99.00;;;;;;5034574;28;20440;-69
2022/08/15 02:16:13;;;;;;;12.90;11.93;;;23.70;98.90;;;;;;5035951;28;20413;-69
2022/08/15 02:18:40;;;;;;;12.67;11.57;;;23.70;98.90;;;;;;5035175;28;20412;-69
2022/08/15 02:21:06;;;;;;;13.27;12.17;;;23.70;98.80;;;;;;5034590;28;21010;-69
2022/08/15 02:23:33;;;;;;;13.30;12.27;;;23.70;98.40;;;;;;5035855;28;20460;-69
2022/08/15 02:25:58;;;;;;;14.40;13.10;;;23.70;98.20;;;;;;5035975;28;20210;-69
2022/08/15 02:28:25;;;;;;;14.83;13.53;;;23.70;97.90;;;;;;5034458;28;20457;-69
2022/08/15 02:30:53;;;;;;;15.50;14.10;;;23.60;96.90;;;;;;4982434;28;20190;-69
2022/08/15 02:33:19;;;;;;;15.17;13.70;;;23.60;96.70;;;;;;5034710;28;20445;-69
2022/08/15 02:35:45;;;;;;;15.57;14.17;;;23.60;96.90;;;;;;5034929;28;20928;-69
2022/08/15 02:38:11;;;;;;;15.63;14.27;;;23.60;96.60;;;;;;5035518;28;20410;-69
2022/08/15 02:40:36;;;;;;;16.67;15.20;;;23.60;96.20;;;;;;5033582;28;20193;-69
2022/08/15 02:43:05;;;;;;;16.63;15.10;;;23.60;96.10;;;;;;5034109;28;20255;-69
2022/08/15 02:45:38;;;;;;;17.23;15.63;;;23.60;96.30;;;;;;5034193;28;20170;-69
2022/08/15 02:48:10;;;;;;;17.30;15.80;;;23.50;96.10;;;;;;5035465;28;20890;-69
2022/08/15 02:50:38;;;;;;;16.53;15.10;;;23.50;96.10;;;;;;5034678;28;20479;-69
2022/08/15 02:53:15;;;;;;;15.53;14.23;;;23.50;96.40;;;;;;5035226;28;20424;-69
2022/08/15 02:55:43;;;;;;;18.13;16.17;;;23.60;96.00;;;;;;5034618;28;20417;-69
2022/08/15 02:58:10;;;;;;;16.83;15.47;;;23.60;95.90;;;;;;5033843;28;20425;-69
2022/08/15 03:00:38;;;;;;;16.07;14.57;;;23.60;96.20;;;;;;5031870;28;20763;-70
2022/08/15 03:03:08;;;;;;;14.30;12.97;;;23.60;96.20;;;;;;5034081;28;20991;-72
2022/08/15 03:05:38;;;;;;;14.37;13.13;;;23.60;94.90;;;;;;5033384;28;20533;-72
2022/08/15 03:08:04;;;;;;;13.87;12.67;;;23.60;94.50;;;;;;5016464;28;20438;-72
2022/08/15 03:10:30;;;;;;;14.57;13.20;;;23.60;94.10;;;;;;5015083;28;20410;-72
2022/08/15 03:13:03;;;;;;;13.67;12.50;;;23.60;94.50;;;;;;5012826;28;20496;-72
2022/08/15 03:15:37;;;;;;;12.17;11.17;;;23.70;93.70;;;;;;5014334;28;20913;-71
2022/08/15 03:18:03;;;;;;;12.90;11.70;;;23.70;93.40;;;;;;5014501;28;20489;-72
2022/08/15 03:20:29;;;;;;;12.03;11.03;;;23.70;92.90;;;;;;5015373;28;20421;-71
2022/08/15 03:22:55;;;;;;;12.43;11.40;;;23.70;92.90;;;;;;5014180;28;20421;-72
2022/08/15 03:25:24;;;;;;;14.30;12.80;;;23.80;92.50;;;;;;5026004;28;20218;-72
2022/08/15 03:27:49;;;;;;;15.03;13.63;;;23.80;93.10;;;;;;5034244;28;20174;-72
2022/08/15 03:30:16;;;;;;;14.20;12.93;;;23.80;93.50;;;;;;5033333;28;20530;-72
2022/08/15 03:32:42;;;;;;;14.00;12.70;;;23.70;94.60;;;;;;5034196;28;20262;-72
2022/08/15 03:35:09;;;;;;;14.93;13.60;;;23.70;94.80;;;;;;5034354;28;20496;-71
2022/08/15 03:37:36;;;;;;;13.83;12.63;;;23.70;95.00;;;;;;5032984;28;20543;-72
2022/08/15 03:40:03;;;;;;;14.53;13.33;;;23.70;94.70;;;;;;5034046;28;20406;-71
2022/08/15 03:42:29;;;;;;;14.17;12.90;;;23.60;94.50;;;;;;5033017;28;20790;-71
2022/08/15 03:44:54;;;;;;;12.67;11.67;;;23.60;94.70;;;;;;5032187;28;20464;-72
2022/08/15 03:47:21;;;;;;;13.13;12.03;;;23.70;94.80;;;;;;5033356;28;20205;-72
2022/08/15 03:49:47;;;;;;;13.63;12.47;;;23.70;94.70;;;;;;5033747;28;20554;-72
2022/08/15 03:52:14;;;;;;;11.80;10.90;;;23.70;94.50;;;;;;5031837;28;20829;-72
2022/08/15 03:54:40;;;;;;;13.20;12.00;;;23.60;94.90;;;;;;5033449;28;20425;-72
2022/08/15 03:57:06;;;;;;;13.73;12.70;;;23.60;95.10;;;;;;5034001;28;20420;-72
2022/08/15 03:59:32;;;;;;;12.27;11.27;;;23.60;95.20;;;;;;5033968;28;20488;-71
2022/08/15 04:01:58;;;;;;;11.33;10.30;;;23.60;95.20;;;;;;5031149;28;20441;-72
2022/08/15 04:04:24;;;;;;;12.10;11.00;;;23.50;94.70;;;;;;5033250;28;20598;-71
2022/08/15 04:06:49;;;;;;;11.20;10.30;;;23.50;94.70;;;;;;5033188;28;20534;-72
2022/08/15 04:09:15;;;;;;;11.33;10.43;;;23.50;94.70;;;;;;5033855;28;20708;-72
2022/08/15 04:11:41;;;;;;;14.33;13.13;;;23.50;94.60;;;;;;5033098;28;20511;-72
2022/08/15 04:14:08;;;;;;;11.17;10.20;;;23.40;94.10;;;;;;5033700;28;20261;-72
2022/08/15 04:16:34;;;;;;;11.67;9.87;;;23.50;94.40;;;;;;5032917;28;20580;-72
2022/08/15 04:19:00;;;;;;;11.87;11.00;;;23.40;94.70;;;;;;5011329;28;20690;-72
2022/08/15 04:21:25;;;;;;;11.17;10.30;;;23.40;94.50;;;;;;5033542;28;20420;-71
2022/08/15 04:23:51;;;;;;;11.27;10.43;;;23.40;94.50;;;;;;5032643;28;20460;-72
2022/08/15 04:26:17;;;;;;;12.50;11.50;;;23.40;94.20;;;;;;5033450;28;20217;-72
2022/08/15 04:28:44;;;;;;;12.37;11.40;;;23.30;94.00;;;;;;5032556;28;20182;-72
2022/08/15 04:31:15;;;;;;;10.73;9.93;;;23.30;93.90;;;;;;5031374;28;20835;-72
2022/08/15 04:33:41;;;;;;;11.93;11.03;;;23.40;94.20;;;;;;5029516;28;20793;-75
2022/08/15 04:36:11;;;;;;;13.10;11.33;;;23.40;94.40;;;;;;5033286;28;20441;-72
2022/08/15 04:38:42;;;;;;;12.30;11.30;;;23.40;94.60;;;;;;5017224;28;20437;-72
2022/08/15 04:41:09;;;;;;;12.23;11.30;;;23.30;94.80;;;;;;5013498;28;20434;-72
2022/08/15 04:43:36;;;;;;;11.20;10.20;;;23.40;95.10;;;;;;5026687;28;20527;-72
2022/08/15 04:46:03;;;;;;;10.63;9.73;;;23.30;94.90;;;;;;5025994;28;21051;-72
2022/08/15 04:48:30;;;;;;;11.50;10.60;;;23.30;94.90;;;;;;5031128;28;20860;-72
2022/08/15 04:50:57;;;;;;;12.60;11.60;;;23.30;95.00;;;;;;5031482;28;20461;-72
2022/08/15 04:53:29;;;;;;;11.40;10.47;;;23.30;94.90;;;;;;5032588;28;20429;-72
2022/08/15 04:55:56;;;;;;;11.37;10.57;;;23.30;95.00;;;;;;5031843;28;20416;-72
2022/08/15 04:58:22;;;;;;;13.33;12.13;;;23.30;94.90;;;;;;5032233;28;20431;-71
2022/08/15 05:00:57;;;;;;;12.60;11.50;;;23.30;95.10;;;;;;5024938;28;20778;-72
2022/08/15 05:03:23;;;;;;;10.73;9.90;;;23.30;94.90;;;;;;5025053;28;20220;-72
2022/08/15 05:06:04;;;;;;;10.20;9.33;;;23.30;95.10;;;;;;5030716;28;20515;-72
2022/08/15 05:08:31;;;;;;;9.70;9.00;;;23.30;93.80;;;;;;5032385;28;20476;-72
2022/08/15 05:11:01;;;;;;;9.57;8.73;;;23.30;93.60;;;;;;5031569;28;20413;-72
2022/08/15 05:13:35;;;;;;;9.37;8.47;;;23.30;94.10;;;;;;5031374;28;20443;-72
2022/08/15 05:16:01;;;;;;;10.57;9.77;;;23.40;94.00;;;;;;5031561;28;20412;-71
2022/08/15 05:18:28;;;;;;;11.83;10.73;;;23.30;93.80;;;;;;5032291;28;20467;-71
2022/08/15 05:20:55;;;;;;;11.80;10.80;;;23.30;94.20;;;;;;5029964;28;20429;-72
2022/08/15 05:23:23;;;;;;;11.17;10.17;;;23.30;94.20;;;;;;5031780;28;20492;-72
2022/08/15 05:25:52;;;;;;;12.77;11.33;;;23.30;94.10;;;;;;5031434;28;20436;-72
2022/08/15 05:28:19;;;;;;;12.57;11.30;;;23.30;94.50;;;;;;5031493;28;20827;-72
2022/08/15 05:30:45;;;;;;;15.43;14.10;;;23.30;95.10;;;;;;5026029;28;20440;-72
2022/08/15 05:33:18;;;;;;;10.50;9.50;;;23.30;94.20;;;;;;5029908;28;20452;-72
2022/08/15 05:35:54;;;;;;;10.60;9.70;;;23.30;94.10;;;;;;5033322;28;20397;-74
2022/08/15 05:38:46;;;;;;;10.93;10.07;;;23.30;94.50;;;;;;5016936;28;20398;-72
2022/08/15 05:41:32;;;;;;;10.67;9.80;;;23.40;93.70;;;;;;5021053;28;20437;-72
2022/08/15 05:44:19;;;;;;;10.30;9.30;;;23.40;93.10;;;;;;5035709;28;20503;-72
2022/08/15 05:46:49;;;;;;;9.90;9.10;;;23.40;93.20;;;;;;5036121;28;20733;-75
2022/08/15 05:49:33;;;;;;;9.80;9.03;;;23.50;93.40;;;;;;4997322;28;20445;-72
2022/08/15 05:52:22;;;;;;;10.80;10.00;;;23.50;93.20;;;;;;5026048;28;20578;-71
2022/08/15 05:54:54;;;;;;;9.73;9.03;;;23.60;93.50;;;;;;5032999;28;20494;-75
2022/08/15 05:57:28;;;;;;;10.73;9.83;;;23.60;94.10;;;;;;5034937;28;20439;-70
2022/08/15 05:59:59;;;;;;;10.23;9.43;;;23.60;95.00;;;;;;5031557;28;20439;-69
2022/08/15 06:02:33;;;;;;;9.70;8.80;;;23.60;95.80;;;;;;5024798;28;20463;-71
2022/08/15 06:05:08;;;;;;;10.20;9.30;;;23.70;95.60;;;;;;5025664;28;20784;-68
2022/08/15 06:07:34;;;;;;;10.20;9.40;;;23.70;95.00;;;;;;5030626;28;20436;-68
2022/08/15 06:10:06;;;;;;;10.30;9.40;;;23.80;95.70;;;;;;5033448;28;20433;-68
2022/08/15 06:12:38;;;;;;;10.20;9.40;;;24.00;96.30;;;;;;5035594;28;20515;-68
2022/08/15 06:15:27;;;;;;;11.20;10.23;;;24.20;96.60;;;;;;5033284;28;20441;-68
2022/08/15 06:17:56;;;;;;;10.37;9.33;;;24.40;96.10;;;;;;5032591;28;21152;-68
2022/08/15 06:20:33;;;;;;;7.63;7.13;;;24.50;93.10;;;;;;5024491;28;20432;-68
2022/08/15 06:23:30;;;;;;;12.33;11.23;;;24.40;90.00;;;;;;5032912;28;20421;-68
2022/08/15 06:26:14;;;;;;;10.23;9.43;;;24.40;90.30;;;;;;5030946;28;20425;-68
2022/08/15 06:29:16;;;;;;;8.20;7.40;;;24.40;90.00;;;;;;5028634;28;20428;-68
2022/08/15 06:31:53;;;;;;;9.57;8.80;;;24.40;90.50;;;;;;5034687;28;20519;-68
2022/08/15 06:34:37;;;;;;;6.80;6.40;;;24.40;92.70;;;;;;5035571;28;20433;-68
2022/08/15 06:37:24;;;;;;;8.90;8.17;;;24.40;91.50;;;;;;5031802;28;20457;-68
2022/08/15 06:40:26;;;;;;;7.50;6.90;;;24.50;92.20;;;;;;5034726;28;20413;-68
2022/08/15 06:42:52;;;;;;;8.00;7.50;;;24.70;90.50;;;;;;5022851;28;20492;-68
2022/08/15 06:45:28;;;;;;;8.83;6.97;;;24.60;90.40;;;;;;5035397;28;20511;-68
2022/08/15 06:47:59;;;;;;;7.20;6.60;;;24.70;91.00;;;;;;5034699;28;20169;-68
2022/08/15 06:50:31;;;;;;;8.07;7.50;;;24.70;88.90;;;;;;5034967;28;20421;-68
2022/08/15 06:53:05;;;;;;;8.63;8.00;;;24.80;90.90;;;;;;5034760;28;20397;-68
2022/08/15 06:55:51;;;;;;;7.70;7.00;;;24.90;91.00;;;;;;5035319;28;20428;-68
2022/08/15 06:58:24;;;;;;;7.50;6.20;;;24.90;87.60;;;;;;5035463;28;20475;-68
2022/08/15 07:00:57;;;;;;;8.13;6.70;;;24.80;90.20;;;;;;5033985;28;20761;-69
2022/08/15 07:03:30;;;;;;;6.50;5.70;;;24.80;90.20;;;;;;5033478;28;20453;-68
2022/08/15 07:05:57;;;;;;;7.33;6.70;;;24.70;90.00;;;;;;5034517;28;20405;-68
2022/08/15 07:08:56;;;;;;;7.10;6.67;;;24.80;89.00;;;;;;5034939;28;20420;-68
2022/08/15 07:11:30;;;;;;;6.60;6.17;;;24.70;89.60;;;;;;5036802;28;20916;-68
2022/08/15 07:14:24;;;;;;;5.60;5.20;;;24.80;89.30;;;;;;5034416;28;20546;-68
2022/08/15 07:17:12;;;;;;;6.33;5.83;;;24.90;89.00;;;;;;5037398;28;20413;-68
2022/08/15 07:19:38;;;;;;;6.40;6.00;;;24.90;89.20;;;;;;5054526;28;20875;-68
2022/08/15 07:22:07;;;;;;;7.70;7.03;;;24.90;87.70;;;;;;5053814;28;20462;-68
2022/08/15 07:24:33;;;;;;;7.50;6.80;;;24.90;89.00;;;;;;5054527;28;20452;-68
2022/08/15 07:27:10;;;;;;;6.20;5.80;;;24.90;89.50;;;;;;5036365;28;20441;-68
2022/08/15 07:30:08;;;;;;;6.40;5.80;;;24.90;88.20;;;;;;5024297;28;20941;-68
2022/08/15 07:32:53;;;;;;;7.60;5.37;;;24.80;86.30;;;;;;5035685;28;20441;-68
2022/08/15 07:35:25;;;;;;;5.80;5.30;;;24.70;90.10;;;;;;5020038;28;20457;-68
2022/08/15 07:38:00;;;;;;;7.10;6.60;;;24.70;87.50;;;;;;5033572;28;20467;-68
2022/08/15 07:40:33;;;;;;;5.93;5.53;;;24.80;90.10;;;;;;5028820;28;20539;-68
2022/08/15 07:43:02;;;;;;;6.17;5.23;;;24.80;87.00;;;;;;5033138;28;20414;-68
2022/08/15 07:45:33;;;;;;;6.10;5.70;;;24.70;86.90;;;;;;5033617;28;20904;-69
2022/08/15 07:48:04;;;;;;;6.10;5.70;;;24.70;88.40;;;;;;5048624;28;20525;-69
2022/08/15 07:50:34;;;;;;;6.73;6.13;;;24.80;87.80;;;;;;5014212;28;20771;-69
2022/08/15 07:53:18;;;;;;;5.87;5.47;;;24.90;87.60;;;;;;5027519;28;20430;-70
2022/08/15 07:56:13;;;;;;;6.23;5.33;;;25.00;86.80;;;;;;5020991;28;20913;-69
2022/08/15 07:58:41;;;;;;;6.37;5.87;;;25.10;87.10;;;;;;5030054;28;20805;-69
2022/08/15 08:01:26;;;;;;;6.90;6.30;;;25.10;86.60;;;;;;5033132;28;20893;-69
2022/08/15 08:04:17;;;;;;;6.93;5.70;;;25.20;86.90;;;;;;5030689;28;20456;-69
2022/08/15 08:07:03;;;;;;;6.20;5.70;;;25.30;86.60;;;;;;5032063;28;20436;-69
2022/08/15 08:09:42;;;;;;;6.33;5.93;;;25.30;85.70;;;;;;5033574;28;20455;-69
2022/08/15 08:12:27;;;;;;;9.03;6.23;;;25.40;85.60;;;;;;5031958;28;20449;-69
2022/08/15 08:15:09;;;;;;;7.80;6.37;;;25.40;85.40;;;;;;5033666;28;20428;-69
2022/08/15 08:17:52;;;;;;;6.60;6.20;;;25.50;85.60;;;;;;5027159;28;20803;-69
2022/08/15 08:20:29;;;;;;;6.67;6.23;;;25.50;86.10;;;;;;5032598;28;20466;-69
2022/08/15 08:23:06;;;;;;;7.37;6.77;;;25.50;86.60;;;;;;5032656;28;20891;-70
2022/08/15 08:25:53;;;;;;;6.40;6.00;;;25.60;87.00;;;;;;5031258;28;20429;-69
2022/08/15 08:28:39;;;;;;;5.40;5.00;;;25.50;86.40;;;;;;5029935;28;20444;-73
2022/08/15 08:31:30;;;;;;;5.50;5.00;;;25.60;86.90;;;;;;5030034;28;20975;-69
2022/08/15 08:34:22;;;;;;;6.00;5.57;;;25.60;87.00;;;;;;5032612;28;20471;-70
2022/08/15 08:37:38;;;;;;;6.10;5.67;;;25.60;86.10;;;;;;5033096;28;20390;-69
2022/08/15 08:43:24;;;;;;;8.13;5.00;;;25.60;85.90;;;;;;5030443;28;20490;-69
2022/08/15 08:46:05;;;;;;;5.70;5.20;;;25.60;85.80;;;;;;5031048;28;20459;-69
2022/08/15 08:48:57;;;;;;;5.67;5.17;;;25.60;86.30;;;;;;5016213;28;20917;-68
2022/08/15 08:51:38;;;;;;;5.37;5.07;;;25.60;87.30;;;;;;5018442;28;21071;-68
2022/08/15 08:54:14;;;;;;;8.13;6.30;;;25.50;88.60;;;;;;5027958;28;20444;-69
2022/08/15 08:56:48;;;;;;;5.50;5.10;;;25.40;87.20;;;;;;5029356;28;20436;-69
2022/08/15 08:59:39;;;;;;;5.40;5.00;;;25.50;87.40;;;;;;5032065;28;20404;-69
2022/08/15 09:02:23;;;;;;;5.03;4.70;;;25.50;88.00;;;;;;5032568;28;20433;-69
2022/08/15 09:04:54;;;;;;;5.50;5.10;;;25.50;86.50;;;;;;5032977;28;20487;-69
2022/08/15 09:07:30;;;;;;;5.70;5.20;;;25.50;87.10;;;;;;5029567;28;20838;-69
2022/08/15 09:10:05;;;;;;;6.20;5.80;;;25.50;86.50;;;;;;5027960;28;20434;-69
2022/08/15 09:15:25;;;;;;;5.00;4.60;;;25.70;88.50;;;;;;5032903;28;20394;-69
2022/08/15 09:17:58;;;;;;;5.50;5.10;;;25.80;87.50;;;;;;5028432;28;20982;-70
2022/08/15 09:20:33;;;;;;;6.10;5.70;;;25.90;87.40;;;;;;5022392;28;20583;-69
2022/08/15 09:23:01;;;;;;;13.77;6.27;;;26.00;86.70;;;;;;5031661;28;20455;-70
2022/08/15 09:25:28;;;;;;;14.17;7.20;;;26.20;87.40;;;;;;5032247;28;20965;-69
2022/08/15 09:28:15;;;;;;;6.97;6.00;;;26.40;87.50;;;;;;5032568;28;20419;-69
2022/08/15 09:30:44;;;;;;;6.30;5.37;;;26.60;86.40;;;;;;5024065;28;21013;-69
2022/08/15 09:33:33;;;;;;;6.40;5.80;;;26.90;85.90;;;;;;5030561;28;20437;-69
2022/08/15 09:36:02;;;;;;;6.73;6.10;;;27.10;84.00;;;;;;5031959;28;20433;-70
2022/08/15 09:38:57;;;;;;;6.50;6.00;;;27.20;83.00;;;;;;5029863;28;20940;-69
2022/08/15 09:41:31;;;;;;;8.23;6.50;;;27.30;82.50;;;;;;5027000;28;20475;-69
2022/08/15 09:44:19;;;;;;;6.47;5.87;;;27.30;82.40;;;;;;5032376;28;20463;-69
2022/08/15 09:47:12;;;;;;;5.80;5.30;;;27.30;81.80;;;;;;5029838;28;20479;-69
2022/08/15 09:49:57;;;;;;;6.03;5.53;;;27.30;81.00;;;;;;5029693;28;20480;-71
2022/08/15 09:52:39;;;;;;;6.60;6.00;;;27.30;82.50;;;;;;5022793;28;20475;-68
2022/08/15 09:55:22;;;;;;;5.70;5.20;;;27.00;82.90;;;;;;5030476;28;20760;-69
2022/08/15 09:57:52;;;;;;;8.00;5.70;;;26.90;84.30;;;;;;5032473;28;20980;-68
2022/08/15 10:00:29;;;;;;;5.70;5.20;;;26.70;84.90;;;;;;5031731;28;20413;-68
2022/08/15 10:03:01;;;;;;;6.30;5.90;;;26.60;84.80;;;;;;5029115;28;20440;-68
2022/08/15 10:05:47;;;;;;;5.90;5.50;;;26.40;85.00;;;;;;5031528;28;20844;-68
2022/08/15 10:08:14;;;;;;;6.90;6.40;;;26.30;85.90;;;;;;5027710;28;20905;-68
2022/08/15 10:10:51;;;;;;;6.67;6.23;;;26.20;86.40;;;;;;5029663;28;20455;-68
2022/08/15 10:13:48;;;;;;;6.10;5.70;;;26.10;86.30;;;;;;5028921;28;20435;-68
2022/08/15 10:16:36;;;;;;;10.90;9.83;;;26.10;87.10;;;;;;5026406;28;20444;-68
2022/08/15 10:19:25;;;;;;;6.90;6.30;;;26.00;86.70;;;;;;4998912;28;20445;-68
2022/08/15 10:21:52;;;;;;;7.60;6.60;;;26.10;86.80;;;;;;5010694;28;20823;-68
2022/08/15 10:24:30;;;;;;;6.87;6.03;;;26.10;86.50;;;;;;5013004;28;20464;-68
2022/08/15 10:27:22;;;;;;;6.00;5.40;;;26.10;86.00;;;;;;5013658;28;20445;-68
2022/08/15 10:29:52;;;;;;;6.93;6.20;;;26.20;86.70;;;;;;5011087;28;20516;-68
2022/08/15 10:32:29;;;;;;;8.47;7.67;;;26.20;86.50;;;;;;5012962;28;20421;-68
2022/08/15 10:35:09;;;;;;;6.50;5.90;;;26.20;85.90;;;;;;5013357;28;20426;-67
2022/08/15 10:37:51;;;;;;;6.63;6.00;;;26.20;85.50;;;;;;5013676;28;20402;-68
2022/08/15 10:40:38;;;;;;;7.70;6.97;;;26.30;86.40;;;;;;5012821;28;20489;-68
2022/08/15 10:43:17;;;;;;;10.80;9.93;;;26.30;87.00;;;;;;4999144;28;20955;-68
2022/08/15 10:46:04;;;;;;;13.27;10.57;;;26.40;86.60;;;;;;5013615;28;20436;-68
2022/08/15 10:49:01;;;;;;;6.47;6.00;;;26.50;86.20;;;;;;5013237;28;20453;-68
2022/08/15 10:51:32;;;;;;;8.30;7.70;;;26.50;86.30;;;;;;4997411;28;20473;-68
2022/08/15 10:53:58;;;;;;;9.67;7.40;;;26.50;86.60;;;;;;5015226;28;20544;-68
2022/08/15 10:56:27;;;;;;;7.83;6.50;;;26.60;85.90;;;;;;5026388;28;20944;-68
2022/08/15 10:59:07;;;;;;;6.13;5.73;;;26.70;85.80;;;;;;5034887;28;20559;-68
2022/08/15 11:01:35;;;;;;;6.20;5.60;;;26.60;86.80;;;;;;5034773;28;20428;-69
2022/08/15 11:04:15;;;;;;;5.97;5.53;;;26.70;86.50;;;;;;5034300;28;20560;-69
2022/08/15 11:06:48;;;;;;;6.10;5.63;;;26.90;85.00;;;;;;5006580;28;20437;-69
2022/08/15 11:09:18;;;;;;;9.07;8.30;;;27.00;84.30;;;;;;5028541;28;20774;-70
2022/08/15 11:11:54;;;;;;;7.03;6.53;;;27.10;83.10;;;;;;5034303;28;20765;-68
2022/08/15 11:14:27;;;;;;;7.07;6.47;;;27.20;82.60;;;;;;5039740;28;20439;-69
2022/08/15 11:16:55;;;;;;;7.10;6.47;;;27.20;82.60;;;;;;5040809;28;20441;-66
2022/08/15 11:19:23;;;;;;;6.40;5.90;;;27.20;82.00;;;;;;5033730;28;20429;-66
2022/08/15 11:21:56;;;;;;;7.50;6.70;;;27.20;82.60;;;;;;5034486;28;20417;-66
2022/08/15 11:24:41;;;;;;;5.90;5.40;;;27.20;82.10;;;;;;5034013;28;20491;-66
2022/08/15 11:27:26;;;;;;;6.90;6.50;;;27.20;81.60;;;;;;5034144;28;20409;-66
2022/08/15 11:29:55;;;;;;;6.80;6.30;;;27.10;81.10;;;;;;5034565;28;20769;-66
2022/08/15 11:32:36;;;;;;;6.60;6.10;;;27.10;81.80;;;;;;5032242;28;20439;-66
2022/08/15 11:35:29;;;;;;;6.90;6.40;;;27.00;81.00;;;;;;5034584;28;20420;-66
2022/08/15 11:38:00;;;;;;;6.10;5.60;;;27.00;81.20;;;;;;5033629;28;20899;-66
2022/08/15 11:40:37;;;;;;;5.17;4.80;;;27.00;81.60;;;;;;5030088;28;20476;-66
2022/08/15 11:43:04;;;;;;;5.80;5.30;;;27.00;81.80;;;;;;5034281;28;20488;-66
2022/08/15 11:45:36;;;;;;;5.23;4.83;;;27.10;80.40;;;;;;5034273;28;20958;-66
2022/08/15 11:48:11;;;;;;;4.93;4.53;;;27.10;79.70;;;;;;5034031;28;20417;-66
2022/08/15 11:50:41;;;;;;;7.40;6.67;;;27.10;80.10;;;;;;5034049;28;20933;-66
2022/08/15 11:53:11;;;;;;;5.43;5.13;;;27.10;80.30;;;;;;5033558;28;20441;-67
2022/08/15 11:55:38;;;;;;;25.73;7.03;;;27.10;80.00;;;;;;5028543;28;21074;-68
2022/08/15 11:58:21;;;;;;;7.33;6.33;;;27.00;79.60;;;;;;5022074;28;20854;-66
2022/08/15 12:00:51;;;;;;;7.23;6.43;;;27.00;79.40;;;;;;5032774;28;20574;-66
2022/08/15 12:03:22;;;;;;;5.43;4.93;;;27.00;79.70;;;;;;5033417;28;20440;-66
2022/08/15 12:05:51;;;;;;;4.57;4.23;;;26.90;80.60;;;;;;5033875;28;20843;-66
2022/08/15 12:08:31;;;;;;;6.90;6.50;;;26.90;81.80;;;;;;5033792;28;21037;-67
2022/08/15 12:11:26;;;;;;;9.00;5.43;;;26.90;83.00;;;;;;5033864;28;20397;-66
2022/08/15 12:13:58;;;;;;;7.63;7.00;;;26.80;82.80;;;;;;5008128;28;20434;-66
2022/08/15 12:16:39;;;;;;;6.40;6.00;;;26.80;82.90;;;;;;5013350;28;20516;-66
2022/08/15 12:19:27;;;;;;;7.07;6.67;;;26.80;83.50;;;;;;5013956;28;20425;-66
2022/08/15 12:21:53;;;;;;;7.07;6.57;;;26.80;84.10;;;;;;5029715;28;20509;-66
2022/08/15 12:24:26;;;;;;;5.90;5.40;;;26.70;84.30;;;;;;5032651;28;20829;-66
2022/08/15 12:26:52;;;;;;;6.60;6.00;;;26.60;84.80;;;;;;5032291;28;20440;-66
2022/08/15 12:29:20;;;;;;;6.10;5.57;;;26.60;85.30;;;;;;5036354;28;20414;-66
2022/08/15 12:31:48;;;;;;;6.77;6.30;;;26.60;86.10;;;;;;5034107;28;20455;-66
2022/08/15 12:34:23;;;;;;;6.90;6.30;;;26.60;86.80;;;;;;5034743;28;20452;-67
2022/08/15 12:36:51;;;;;;;7.57;6.97;;;26.60;86.80;;;;;;5046438;28;20409;-66
2022/08/15 12:39:18;;;;;;;6.33;5.83;;;26.50;86.40;;;;;;5032498;28;20475;-66
2022/08/15 12:41:48;;;;;;;7.57;6.87;;;26.50;86.70;;;;;;5051439;28;20429;-66
2022/08/15 12:44:27;;;;;;;7.47;6.77;;;26.50;86.30;;;;;;5045292;28;20962;-66
2022/08/15 12:46:55;;;;;;;7.13;6.13;;;26.40;86.00;;;;;;5027310;28;20425;-66
2022/08/15 12:49:21;;;;;;;6.67;6.27;;;26.40;86.20;;;;;;5030623;28;20444;-66
2022/08/15 12:51:47;;;;;;;7.60;7.00;;;26.40;86.60;;;;;;5032403;28;20472;-66
2022/08/15 12:54:13;;;;;;;7.70;6.60;;;26.50;86.80;;;;;;5030873;28;20276;-70
2022/08/15 12:56:40;;;;;;;8.83;8.23;;;26.50;86.90;;;;;;5031115;28;20418;-66
2022/08/15 12:59:06;;;;;;;6.83;6.33;;;26.50;86.20;;;;;;5032946;28;20423;-66
2022/08/15 13:01:36;;;;;;;6.47;5.87;;;26.60;87.30;;;;;;5031982;28;20480;-66
2022/08/15 13:04:06;;;;;;;7.27;6.50;;;26.60;86.60;;;;;;5032884;28;20197;-66
2022/08/15 13:06:48;;;;;;;7.40;6.70;;;26.60;85.80;;;;;;5032202;28;20465;-66
2022/08/15 13:09:16;;;;;;;7.17;6.47;;;26.60;86.00;;;;;;5032353;28;20437;-66
2022/08/15 13:11:43;;;;;;;6.63;6.03;;;26.70;86.50;;;;;;5032983;28;20413;-66
2022/08/15 13:14:11;;;;;;;6.90;6.40;;;26.70;84.90;;;;;;5032435;28;20495;-66
2022/08/15 13:16:37;;;;;;;8.10;7.40;;;26.90;85.40;;;;;;5032697;28;20503;-66